Cosmopolis, Washington
Current Conditions -  °F | °C
As of 10:31 AM on Thursday 27 Nov 2014 (Local Time) from KHQM Reporting Station
Light Rain Light Rain  
Wind Chill: 56°   Ceiling: 1000
Heat Index: 56°   Visibility: 3mi
Dew Point: 55°   Wind: 18mph
Humidity: 97%   Direction: 200°SSW
Pressure: 29.85"   Gusts: NA
Location:  46.96°N, 123.77°W
Report Text: KHQM 271831Z AUTO 20016KT 3SM -RA BR BKN010 BKN017 OVC035 13/13 A2985 RMK AO2 RAE1754B12 P0003 T01330128
Loading
Personal Weather Stations






























Interactive Weather Map New forecast layout! Learn more

10-Day Weather Forecast

Advertisements
Track Severe Weather on mobile